sensor_id;sensor_type;location;lat;lon;timestamp;P1;durP1;ratioP1;P2;durP2;ratioP2
77016;SDS011;65949;53.132;17.930;2023-07-20T00:01:29;8.60;;;3.90;;
77016;SDS011;65949;53.132;17.930;2023-07-20T00:03:56;7.40;;;3.80;;
77016;SDS011;65949;53.132;17.930;2023-07-20T00:06:23;6.80;;;4.10;;
77016;SDS011;65949;53.132;17.930;2023-07-20T00:08:51;8.90;;;4.00;;
77016;SDS011;65949;53.132;17.930;2023-07-20T00:11:18;7.90;;;3.70;;
77016;SDS011;65949;53.132;17.930;2023-07-20T00:13:44;9.50;;;3.50;;
77016;SDS011;65949;53.132;17.930;2023-07-20T00:16:11;7.30;;;3.90;;
77016;SDS011;65949;53.132;17.930;2023-07-20T00:18:38;7.80;;;4.00;;
77016;SDS011;65949;53.132;17.930;2023-07-20T00:21:04;8.10;;;3.90;;
77016;SDS011;65949;53.132;17.930;2023-07-20T00:23:31;6.60;;;3.70;;
77016;SDS011;65949;53.132;17.930;2023-07-20T00:25:57;8.60;;;3.80;;
77016;SDS011;65949;53.132;17.930;2023-07-20T00:28:24;7.00;;;3.70;;
77016;SDS011;65949;53.132;17.930;2023-07-20T00:30:51;8.80;;;3.90;;
77016;SDS011;65949;53.132;17.930;2023-07-20T00:33:17;8.30;;;4.60;;
77016;SDS011;65949;53.132;17.930;2023-07-20T00:35:44;6.70;;;3.60;;
77016;SDS011;65949;53.132;17.930;2023-07-20T00:38:11;7.20;;;3.70;;
77016;SDS011;65949;53.132;17.930;2023-07-20T00:40:38;7.70;;;4.00;;
77016;SDS011;65949;53.132;17.930;2023-07-20T00:43:05;9.20;;;4.30;;
77016;SDS011;65949;53.132;17.930;2023-07-20T00:45:32;7.70;;;4.00;;
77016;SDS011;65949;53.132;17.930;2023-07-20T00:48:01;8.30;;;4.30;;
77016;SDS011;65949;53.132;17.930;2023-07-20T00:50:28;7.80;;;4.30;;
77016;SDS011;65949;53.132;17.930;2023-07-20T00:52:55;9.20;;;4.00;;
77016;SDS011;65949;53.132;17.930;2023-07-20T00:55:25;8.40;;;4.40;;
77016;SDS011;65949;53.132;17.930;2023-07-20T00:57:53;9.70;;;5.00;;
77016;SDS011;65949;53.132;17.930;2023-07-20T01:00:20;8.40;;;4.40;;
77016;SDS011;65949;53.132;17.930;2023-07-20T01:02:46;9.10;;;4.60;;
77016;SDS011;65949;53.132;17.930;2023-07-20T01:05:13;9.70;;;4.60;;
77016;SDS011;65949;53.132;17.930;2023-07-20T01:07:46;9.60;;;5.20;;
77016;SDS011;65949;53.132;17.930;2023-07-20T01:13:06;9.30;;;4.70;;
77016;SDS011;65949;53.132;17.930;2023-07-20T01:15:35;7.60;;;4.60;;
77016;SDS011;65949;53.132;17.930;2023-07-20T01:18:02;8.60;;;4.70;;
77016;SDS011;65949;53.132;17.930;2023-07-20T01:20:31;10.70;;;5.10;;
77016;SDS011;65949;53.132;17.930;2023-07-20T01:23:18;10.10;;;6.10;;
77016;SDS011;65949;53.132;17.930;2023-07-20T01:26:02;8.70;;;4.70;;
77016;SDS011;65949;53.132;17.930;2023-07-20T01:28:57;10.00;;;4.70;;
77016;SDS011;65949;53.132;17.930;2023-07-20T01:31:55;10.60;;;6.20;;
77016;SDS011;65949;53.132;17.930;2023-07-20T01:34:23;11.90;;;6.30;;
77016;SDS011;65949;53.132;17.930;2023-07-20T01:36:52;11.60;;;5.40;;
77016;SDS011;65949;53.132;17.930;2023-07-20T01:39:21;9.40;;;4.90;;
77016;SDS011;65949;53.132;17.930;2023-07-20T01:41:48;13.70;;;5.60;;
77016;SDS011;65949;53.132;17.930;2023-07-20T01:44:15;8.80;;;4.60;;
77016;SDS011;65949;53.132;17.930;2023-07-20T01:46:41;9.20;;;4.80;;
77016;SDS011;65949;53.132;17.930;2023-07-20T01:49:08;9.60;;;5.10;;
77016;SDS011;65949;53.132;17.930;2023-07-20T01:51:35;10.90;;;4.90;;
77016;SDS011;65949;53.132;17.930;2023-07-20T01:54:01;9.40;;;4.10;;
77016;SDS011;65949;53.132;17.930;2023-07-20T01:56:28;8.20;;;4.50;;
77016;SDS011;65949;53.132;17.930;2023-07-20T01:58:55;8.40;;;4.60;;
77016;SDS011;65949;53.132;17.930;2023-07-20T02:01:22;8.60;;;4.10;;
77016;SDS011;65949;53.132;17.930;2023-07-20T02:03:50;9.00;;;4.50;;
77016;SDS011;65949;53.132;17.930;2023-07-20T02:06:17;8.80;;;4.10;;
77016;SDS011;65949;53.132;17.930;2023-07-20T02:08:44;8.80;;;3.90;;
77016;SDS011;65949;53.132;17.930;2023-07-20T02:11:10;8.30;;;4.30;;
77016;SDS011;65949;53.132;17.930;2023-07-20T02:13:37;7.90;;;4.50;;
77016;SDS011;65949;53.132;17.930;2023-07-20T02:16:03;7.80;;;4.20;;
77016;SDS011;65949;53.132;17.930;2023-07-20T02:18:30;7.60;;;3.90;;
77016;SDS011;65949;53.132;17.930;2023-07-20T02:20:57;8.60;;;4.00;;
77016;SDS011;65949;53.132;17.930;2023-07-20T02:23:24;8.50;;;4.40;;
77016;SDS011;65949;53.132;17.930;2023-07-20T02:25:50;8.60;;;4.20;;
77016;SDS011;65949;53.132;17.930;2023-07-20T02:28:17;7.70;;;4.00;;
77016;SDS011;65949;53.132;17.930;2023-07-20T02:30:43;7.20;;;3.80;;
77016;SDS011;65949;53.132;17.930;2023-07-20T02:33:10;7.00;;;3.80;;
77016;SDS011;65949;53.132;17.930;2023-07-20T02:35:36;7.40;;;3.80;;
77016;SDS011;65949;53.132;17.930;2023-07-20T02:38:03;9.50;;;4.70;;
77016;SDS011;65949;53.132;17.930;2023-07-20T02:40:30;9.10;;;4.00;;
77016;SDS011;65949;53.132;17.930;2023-07-20T02:42:56;8.40;;;4.10;;
77016;SDS011;65949;53.132;17.930;2023-07-20T02:45:23;10.00;;;4.80;;
77016;SDS011;65949;53.132;17.930;2023-07-20T02:47:50;7.80;;;4.50;;
77016;SDS011;65949;53.132;17.930;2023-07-20T02:50:16;8.70;;;4.20;;
77016;SDS011;65949;53.132;17.930;2023-07-20T02:52:43;9.90;;;3.80;;
77016;SDS011;65949;53.132;17.930;2023-07-20T02:55:10;9.20;;;4.80;;
77016;SDS011;65949;53.132;17.930;2023-07-20T02:57:36;7.80;;;4.50;;
77016;SDS011;65949;53.132;17.930;2023-07-20T03:00:03;7.50;;;4.20;;
77016;SDS011;65949;53.132;17.930;2023-07-20T03:02:32;8.70;;;4.50;;
77016;SDS011;65949;53.132;17.930;2023-07-20T03:04:58;7.40;;;4.20;;
77016;SDS011;65949;53.132;17.930;2023-07-20T03:07:27;8.40;;;4.20;;
77016;SDS011;65949;53.132;17.930;2023-07-20T03:09:54;7.60;;;3.90;;
77016;SDS011;65949;53.132;17.930;2023-07-20T03:12:21;7.10;;;4.00;;
77016;SDS011;65949;53.132;17.930;2023-07-20T03:14:48;7.80;;;3.70;;
77016;SDS011;65949;53.132;17.930;2023-07-20T03:17:15;7.20;;;3.80;;
77016;SDS011;65949;53.132;17.930;2023-07-20T03:19:42;7.50;;;3.80;;
77016;SDS011;65949;53.132;17.930;2023-07-20T03:22:10;7.40;;;4.10;;
77016;SDS011;65949;53.132;17.930;2023-07-20T03:24:36;7.80;;;4.10;;
77016;SDS011;65949;53.132;17.930;2023-07-20T03:27:03;7.90;;;4.40;;
77016;SDS011;65949;53.132;17.930;2023-07-20T03:29:31;10.10;;;4.60;;
77016;SDS011;65949;53.132;17.930;2023-07-20T03:31:59;7.80;;;4.20;;
77016;SDS011;65949;53.132;17.930;2023-07-20T03:34:26;7.90;;;4.00;;
77016;SDS011;65949;53.132;17.930;2023-07-20T03:36:52;7.70;;;3.80;;
77016;SDS011;65949;53.132;17.930;2023-07-20T03:39:19;8.00;;;4.40;;
77016;SDS011;65949;53.132;17.930;2023-07-20T03:41:46;8.20;;;4.20;;
77016;SDS011;65949;53.132;17.930;2023-07-20T03:44:12;8.10;;;4.30;;
77016;SDS011;65949;53.132;17.930;2023-07-20T03:46:39;8.80;;;4.00;;
77016;SDS011;65949;53.132;17.930;2023-07-20T03:49:05;9.10;;;4.30;;
77016;SDS011;65949;53.132;17.930;2023-07-20T03:51:32;10.60;;;4.70;;
77016;SDS011;65949;53.132;17.930;2023-07-20T03:53:59;10.10;;;4.50;;
77016;SDS011;65949;53.132;17.930;2023-07-20T03:56:25;10.80;;;4.70;;
77016;SDS011;65949;53.132;17.930;2023-07-20T03:58:52;7.90;;;5.00;;
77016;SDS011;65949;53.132;17.930;2023-07-20T04:01:19;8.40;;;4.30;;
77016;SDS011;65949;53.132;17.930;2023-07-20T04:03:45;7.90;;;4.30;;
77016;SDS011;65949;53.132;17.930;2023-07-20T04:06:13;8.30;;;4.40;;
77016;SDS011;65949;53.132;17.930;2023-07-20T04:08:40;7.60;;;4.30;;
77016;SDS011;65949;53.132;17.930;2023-07-20T04:11:07;7.80;;;4.20;;
77016;SDS011;65949;53.132;17.930;2023-07-20T04:13:33;8.30;;;4.00;;
77016;SDS011;65949;53.132;17.930;2023-07-20T04:16:00;7.10;;;4.10;;
77016;SDS011;65949;53.132;17.930;2023-07-20T04:18:27;13.30;;;4.90;;
77016;SDS011;65949;53.132;17.930;2023-07-20T04:20:54;9.00;;;4.10;;
77016;SDS011;65949;53.132;17.930;2023-07-20T04:23:21;8.90;;;4.00;;
77016;SDS011;65949;53.132;17.930;2023-07-20T04:25:47;7.90;;;4.10;;
77016;SDS011;65949;53.132;17.930;2023-07-20T04:28:14;9.10;;;4.30;;
77016;SDS011;65949;53.132;17.930;2023-07-20T04:30:49;7.40;;;4.10;;
77016;SDS011;65949;53.132;17.930;2023-07-20T04:33:17;9.70;;;4.10;;
77016;SDS011;65949;53.132;17.930;2023-07-20T04:35:52;7.10;;;4.20;;
77016;SDS011;65949;53.132;17.930;2023-07-20T04:38:24;10.00;;;4.30;;
77016;SDS011;65949;53.132;17.930;2023-07-20T04:40:58;8.50;;;5.20;;
77016;SDS011;65949;53.132;17.930;2023-07-20T04:43:24;8.60;;;4.90;;
77016;SDS011;65949;53.132;17.930;2023-07-20T04:45:52;12.50;;;5.10;;
77016;SDS011;65949;53.132;17.930;2023-07-20T04:48:18;14.20;;;5.00;;
77016;SDS011;65949;53.132;17.930;2023-07-20T04:50:50;15.90;;;5.00;;
77016;SDS011;65949;53.132;17.930;2023-07-20T04:53:17;9.70;;;4.40;;
77016;SDS011;65949;53.132;17.930;2023-07-20T04:55:48;8.40;;;4.60;;
77016;SDS011;65949;53.132;17.930;2023-07-20T04:58:23;10.10;;;4.10;;
77016;SDS011;65949;53.132;17.930;2023-07-20T05:00:50;8.10;;;4.40;;
77016;SDS011;65949;53.132;17.930;2023-07-20T05:03:17;8.00;;;4.20;;
77016;SDS011;65949;53.132;17.930;2023-07-20T05:05:46;8.80;;;4.60;;
77016;SDS011;65949;53.132;17.930;2023-07-20T05:08:13;7.90;;;3.90;;
77016;SDS011;65949;53.132;17.930;2023-07-20T05:10:40;7.10;;;3.60;;
77016;SDS011;65949;53.132;17.930;2023-07-20T05:13:07;13.80;;;4.40;;
77016;SDS011;65949;53.132;17.930;2023-07-20T05:15:34;6.90;;;3.10;;
77016;SDS011;65949;53.132;17.930;2023-07-20T05:18:03;6.60;;;3.60;;
77016;SDS011;65949;53.132;17.930;2023-07-20T05:20:29;12.50;;;3.30;;
77016;SDS011;65949;53.132;17.930;2023-07-20T05:22:57;8.10;;;3.40;;
77016;SDS011;65949;53.132;17.930;2023-07-20T05:25:24;10.00;;;2.60;;
77016;SDS011;65949;53.132;17.930;2023-07-20T05:27:51;14.10;;;3.50;;
77016;SDS011;65949;53.132;17.930;2023-07-20T05:30:18;8.70;;;4.30;;
77016;SDS011;65949;53.132;17.930;2023-07-20T05:32:45;6.80;;;3.00;;
77016;SDS011;65949;53.132;17.930;2023-07-20T05:35:17;6.40;;;2.20;;
77016;SDS011;65949;53.132;17.930;2023-07-20T05:37:44;9.10;;;2.50;;
77016;SDS011;65949;53.132;17.930;2023-07-20T05:40:12;6.30;;;2.20;;
77016;SDS011;65949;53.132;17.930;2023-07-20T05:42:39;4.80;;;2.20;;
77016;SDS011;65949;53.132;17.930;2023-07-20T05:45:06;7.10;;;2.50;;
77016;SDS011;65949;53.132;17.930;2023-07-20T05:47:33;9.10;;;2.70;;
77016;SDS011;65949;53.132;17.930;2023-07-20T05:50:00;8.50;;;2.50;;
77016;SDS011;65949;53.132;17.930;2023-07-20T05:52:26;5.90;;;2.60;;
77016;SDS011;65949;53.132;17.930;2023-07-20T05:54:53;5.60;;;3.10;;
77016;SDS011;65949;53.132;17.930;2023-07-20T05:57:20;7.80;;;2.90;;
77016;SDS011;65949;53.132;17.930;2023-07-20T05:59:47;11.10;;;3.20;;
77016;SDS011;65949;53.132;17.930;2023-07-20T06:02:13;8.50;;;2.70;;
77016;SDS011;65949;53.132;17.930;2023-07-20T06:04:40;7.20;;;3.50;;
77016;SDS011;65949;53.132;17.930;2023-07-20T06:07:06;11.90;;;2.90;;
77016;SDS011;65949;53.132;17.930;2023-07-20T06:09:36;7.30;;;2.40;;
77016;SDS011;65949;53.132;17.930;2023-07-20T06:12:03;6.40;;;2.60;;
77016;SDS011;65949;53.132;17.930;2023-07-20T06:14:30;8.70;;;2.90;;
77016;SDS011;65949;53.132;17.930;2023-07-20T06:16:57;7.60;;;2.80;;
77016;SDS011;65949;53.132;17.930;2023-07-20T06:19:23;6.80;;;2.30;;
77016;SDS011;65949;53.132;17.930;2023-07-20T06:21:50;7.80;;;2.90;;
77016;SDS011;65949;53.132;17.930;2023-07-20T06:24:17;9.60;;;2.40;;
77016;SDS011;65949;53.132;17.930;2023-07-20T06:26:43;9.20;;;2.70;;
77016;SDS011;65949;53.132;17.930;2023-07-20T06:29:10;5.60;;;2.40;;
77016;SDS011;65949;53.132;17.930;2023-07-20T06:31:37;5.80;;;2.70;;
77016;SDS011;65949;53.132;17.930;2023-07-20T06:34:04;7.90;;;2.90;;
77016;SDS011;65949;53.132;17.930;2023-07-20T06:36:30;5.60;;;2.70;;
77016;SDS011;65949;53.132;17.930;2023-07-20T06:38:57;6.90;;;2.60;;
77016;SDS011;65949;53.132;17.930;2023-07-20T06:41:23;6.20;;;1.80;;
77016;SDS011;65949;53.132;17.930;2023-07-20T06:43:50;4.00;;;1.70;;
77016;SDS011;65949;53.132;17.930;2023-07-20T06:46:16;4.70;;;1.90;;
77016;SDS011;65949;53.132;17.930;2023-07-20T06:48:43;4.40;;;1.60;;
77016;SDS011;65949;53.132;17.930;2023-07-20T06:51:10;4.70;;;1.60;;
77016;SDS011;65949;53.132;17.930;2023-07-20T06:53:36;4.90;;;1.90;;
77016;SDS011;65949;53.132;17.930;2023-07-20T06:56:03;5.20;;;2.10;;
77016;SDS011;65949;53.132;17.930;2023-07-20T06:58:30;3.60;;;1.30;;
77016;SDS011;65949;53.132;17.930;2023-07-20T07:00:56;5.40;;;2.00;;
77016;SDS011;65949;53.132;17.930;2023-07-20T07:03:23;9.00;;;1.90;;
77016;SDS011;65949;53.132;17.930;2023-07-20T07:05:49;5.30;;;1.60;;
77016;SDS011;65949;53.132;17.930;2023-07-20T07:08:16;5.70;;;1.70;;
77016;SDS011;65949;53.132;17.930;2023-07-20T07:10:43;4.70;;;2.00;;
77016;SDS011;65949;53.132;17.930;2023-07-20T07:13:09;5.50;;;1.40;;
77016;SDS011;65949;53.132;17.930;2023-07-20T07:15:36;6.00;;;1.30;;
77016;SDS011;65949;53.132;17.930;2023-07-20T07:18:03;5.20;;;1.60;;
77016;SDS011;65949;53.132;17.930;2023-07-20T07:20:29;7.50;;;2.00;;
77016;SDS011;65949;53.132;17.930;2023-07-20T07:22:56;5.80;;;1.80;;
77016;SDS011;65949;53.132;17.930;2023-07-20T07:25:23;5.80;;;1.80;;
77016;SDS011;65949;53.132;17.930;2023-07-20T07:27:51;4.90;;;1.50;;
77016;SDS011;65949;53.132;17.930;2023-07-20T07:30:19;4.00;;;1.50;;
77016;SDS011;65949;53.132;17.930;2023-07-20T07:32:46;5.00;;;1.60;;
77016;SDS011;65949;53.132;17.930;2023-07-20T07:35:13;4.60;;;1.50;;
77016;SDS011;65949;53.132;17.930;2023-07-20T07:37:40;4.20;;;1.40;;
77016;SDS011;65949;53.132;17.930;2023-07-20T07:40:06;4.20;;;1.80;;
77016;SDS011;65949;53.132;17.930;2023-07-20T07:42:34;6.50;;;1.50;;
77016;SDS011;65949;53.132;17.930;2023-07-20T07:45:01;7.00;;;1.40;;
77016;SDS011;65949;53.132;17.930;2023-07-20T07:47:28;3.40;;;1.30;;
77016;SDS011;65949;53.132;17.930;2023-07-20T07:49:55;4.00;;;1.40;;
77016;SDS011;65949;53.132;17.930;2023-07-20T07:52:21;5.10;;;1.40;;
77016;SDS011;65949;53.132;17.930;2023-07-20T07:54:48;3.60;;;1.70;;
77016;SDS011;65949;53.132;17.930;2023-07-20T07:57:14;4.40;;;1.90;;
77016;SDS011;65949;53.132;17.930;2023-07-20T07:59:41;3.50;;;1.60;;
77016;SDS011;65949;53.132;17.930;2023-07-20T08:02:07;4.80;;;1.40;;
77016;SDS011;65949;53.132;17.930;2023-07-20T08:04:34;5.10;;;1.70;;
77016;SDS011;65949;53.132;17.930;2023-07-20T08:07:03;4.00;;;1.50;;
77016;SDS011;65949;53.132;17.930;2023-07-20T08:09:30;5.70;;;1.80;;
77016;SDS011;65949;53.132;17.930;2023-07-20T08:11:56;4.80;;;1.50;;
77016;SDS011;65949;53.132;17.930;2023-07-20T08:14:23;3.80;;;1.40;;
77016;SDS011;65949;53.132;17.930;2023-07-20T08:16:50;4.30;;;1.50;;
77016;SDS011;65949;53.132;17.930;2023-07-20T08:19:16;4.60;;;1.60;;
77016;SDS011;65949;53.132;17.930;2023-07-20T08:21:43;3.60;;;1.40;;
77016;SDS011;65949;53.132;17.930;2023-07-20T08:24:09;4.60;;;1.70;;
77016;SDS011;65949;53.132;17.930;2023-07-20T08:26:36;6.10;;;1.60;;
77016;SDS011;65949;53.132;17.930;2023-07-20T08:29:02;4.10;;;1.50;;
77016;SDS011;65949;53.132;17.930;2023-07-20T08:31:29;4.80;;;2.20;;
77016;SDS011;65949;53.132;17.930;2023-07-20T08:33:56;5.70;;;1.90;;
77016;SDS011;65949;53.132;17.930;2023-07-20T08:36:23;5.00;;;1.80;;
77016;SDS011;65949;53.132;17.930;2023-07-20T08:38:50;4.10;;;1.30;;
77016;SDS011;65949;53.132;17.930;2023-07-20T08:41:17;3.60;;;1.20;;
77016;SDS011;65949;53.132;17.930;2023-07-20T08:43:45;5.80;;;1.70;;
77016;SDS011;65949;53.132;17.930;2023-07-20T08:46:13;4.80;;;1.90;;
77016;SDS011;65949;53.132;17.930;2023-07-20T08:48:40;2.80;;;1.40;;
77016;SDS011;65949;53.132;17.930;2023-07-20T08:51:08;3.80;;;1.20;;
77016;SDS011;65949;53.132;17.930;2023-07-20T08:53:37;6.80;;;2.10;;
77016;SDS011;65949;53.132;17.930;2023-07-20T08:56:04;3.70;;;1.50;;
77016;SDS011;65949;53.132;17.930;2023-07-20T08:58:31;5.50;;;1.90;;
77016;SDS011;65949;53.132;17.930;2023-07-20T09:01:00;3.10;;;1.40;;
77016;SDS011;65949;53.132;17.930;2023-07-20T09:03:27;3.60;;;1.70;;
77016;SDS011;65949;53.132;17.930;2023-07-20T09:05:54;5.70;;;1.50;;
77016;SDS011;65949;53.132;17.930;2023-07-20T09:08:20;4.00;;;1.40;;
77016;SDS011;65949;53.132;17.930;2023-07-20T09:10:47;4.10;;;1.50;;
77016;SDS011;65949;53.132;17.930;2023-07-20T09:13:14;6.80;;;1.30;;
77016;SDS011;65949;53.132;17.930;2023-07-20T09:15:49;4.00;;;1.30;;
77016;SDS011;65949;53.132;17.930;2023-07-20T09:18:23;4.70;;;1.40;;
77016;SDS011;65949;53.132;17.930;2023-07-20T09:20:50;3.40;;;1.40;;
77016;SDS011;65949;53.132;17.930;2023-07-20T09:23:17;4.60;;;1.50;;
77016;SDS011;65949;53.132;17.930;2023-07-20T09:25:43;3.20;;;1.00;;
77016;SDS011;65949;53.132;17.930;2023-07-20T09:28:12;7.20;;;1.50;;
77016;SDS011;65949;53.132;17.930;2023-07-20T09:30:38;3.50;;;1.20;;
77016;SDS011;65949;53.132;17.930;2023-07-20T09:33:05;3.70;;;1.50;;
77016;SDS011;65949;53.132;17.930;2023-07-20T09:35:32;5.30;;;1.90;;
77016;SDS011;65949;53.132;17.930;2023-07-20T09:37:59;4.40;;;1.90;;
77016;SDS011;65949;53.132;17.930;2023-07-20T09:40:27;4.00;;;1.20;;
77016;SDS011;65949;53.132;17.930;2023-07-20T09:42:54;5.00;;;1.50;;
77016;SDS011;65949;53.132;17.930;2023-07-20T09:45:38;4.40;;;1.60;;
77016;SDS011;65949;53.132;17.930;2023-07-20T09:48:06;5.10;;;1.70;;
77016;SDS011;65949;53.132;17.930;2023-07-20T09:50:33;4.50;;;1.00;;
77016;SDS011;65949;53.132;17.930;2023-07-20T09:53:00;3.90;;;1.50;;
77016;SDS011;65949;53.132;17.930;2023-07-20T09:55:30;3.70;;;1.30;;
77016;SDS011;65949;53.132;17.930;2023-07-20T09:58:00;5.60;;;1.60;;
77016;SDS011;65949;53.132;17.930;2023-07-20T10:00:26;3.60;;;1.40;;
77016;SDS011;65949;53.132;17.930;2023-07-20T10:02:53;3.70;;;1.10;;
77016;SDS011;65949;53.132;17.930;2023-07-20T10:05:22;4.00;;;1.50;;
77016;SDS011;65949;53.132;17.930;2023-07-20T10:07:50;3.70;;;1.60;;
77016;SDS011;65949;53.132;17.930;2023-07-20T10:10:18;3.00;;;1.20;;
77016;SDS011;65949;53.132;17.930;2023-07-20T10:12:47;4.00;;;1.60;;
77016;SDS011;65949;53.132;17.930;2023-07-20T10:15:25;3.40;;;1.40;;
77016;SDS011;65949;53.132;17.930;2023-07-20T10:18:02;3.80;;;1.70;;
77016;SDS011;65949;53.132;17.930;2023-07-20T10:20:35;4.40;;;1.40;;
77016;SDS011;65949;53.132;17.930;2023-07-20T10:23:05;4.70;;;1.80;;
77016;SDS011;65949;53.132;17.930;2023-07-20T10:25:33;5.60;;;1.50;;
77016;SDS011;65949;53.132;17.930;2023-07-20T10:28:06;5.80;;;1.30;;
77016;SDS011;65949;53.132;17.930;2023-07-20T10:30:34;3.80;;;1.10;;
77016;SDS011;65949;53.132;17.930;2023-07-20T10:33:04;5.00;;;1.30;;
77016;SDS011;65949;53.132;17.930;2023-07-20T10:35:50;7.70;;;1.50;;
77016;SDS011;65949;53.132;17.930;2023-07-20T10:38:42;5.00;;;1.20;;
77016;SDS011;65949;53.132;17.930;2023-07-20T10:41:37;2.80;;;1.10;;
77016;SDS011;65949;53.132;17.930;2023-07-20T10:44:07;5.00;;;1.80;;
77016;SDS011;65949;53.132;17.930;2023-07-20T10:49:06;4.20;;;1.40;;
77016;SDS011;65949;53.132;17.930;2023-07-20T10:51:41;4.90;;;1.30;;
77016;SDS011;65949;53.132;17.930;2023-07-20T10:54:33;5.00;;;1.40;;
77016;SDS011;65949;53.132;17.930;2023-07-20T10:56:56;3.50;;;1.40;;
77016;SDS011;65949;53.132;17.930;2023-07-20T10:59:43;3.90;;;1.40;;
77016;SDS011;65949;53.132;17.930;2023-07-20T11:02:13;3.90;;;1.60;;
77016;SDS011;65949;53.132;17.930;2023-07-20T11:04:45;3.50;;;1.30;;
77016;SDS011;65949;53.132;17.930;2023-07-20T11:07:16;4.10;;;1.50;;
77016;SDS011;65949;53.132;17.930;2023-07-20T11:09:44;3.70;;;1.60;;
77016;SDS011;65949;53.132;17.930;2023-07-20T11:12:12;3.50;;;1.60;;
77016;SDS011;65949;53.132;17.930;2023-07-20T11:14:43;3.90;;;1.70;;
77016;SDS011;65949;53.132;17.930;2023-07-20T11:17:20;7.20;;;1.90;;
77016;SDS011;65949;53.132;17.930;2023-07-20T11:19:56;3.60;;;1.20;;
77016;SDS011;65949;53.132;17.930;2023-07-20T11:22:24;2.20;;;0.90;;
77016;SDS011;65949;53.132;17.930;2023-07-20T11:24:50;5.30;;;1.70;;
77016;SDS011;65949;53.132;17.930;2023-07-20T11:27:21;2.90;;;1.50;;
77016;SDS011;65949;53.132;17.930;2023-07-20T11:29:48;4.10;;;1.30;;
77016;SDS011;65949;53.132;17.930;2023-07-20T11:32:25;4.40;;;1.50;;
77016;SDS011;65949;53.132;17.930;2023-07-20T11:34:52;5.70;;;1.60;;
77016;SDS011;65949;53.132;17.930;2023-07-20T11:37:18;5.00;;;1.20;;
77016;SDS011;65949;53.132;17.930;2023-07-20T11:39:45;4.00;;;1.70;;
77016;SDS011;65949;53.132;17.930;2023-07-20T11:42:12;19.60;;;2.70;;
77016;SDS011;65949;53.132;17.930;2023-07-20T11:44:38;9.70;;;1.90;;
77016;SDS011;65949;53.132;17.930;2023-07-20T11:47:08;6.40;;;1.70;;
77016;SDS011;65949;53.132;17.930;2023-07-20T11:49:37;8.00;;;1.70;;
77016;SDS011;65949;53.132;17.930;2023-07-20T11:52:08;5.50;;;1.60;;
77016;SDS011;65949;53.132;17.930;2023-07-20T11:54:40;6.20;;;1.50;;
77016;SDS011;65949;53.132;17.930;2023-07-20T11:57:07;8.50;;;1.70;;
77016;SDS011;65949;53.132;17.930;2023-07-20T11:59:56;6.20;;;1.40;;
77016;SDS011;65949;53.132;17.930;2023-07-20T12:02:23;4.10;;;0.90;;
77016;SDS011;65949;53.132;17.930;2023-07-20T12:04:56;5.70;;;1.40;;
77016;SDS011;65949;53.132;17.930;2023-07-20T12:07:25;3.70;;;1.20;;
77016;SDS011;65949;53.132;17.930;2023-07-20T12:10:07;4.60;;;1.40;;
77016;SDS011;65949;53.132;17.930;2023-07-20T12:12:34;3.60;;;0.90;;
77016;SDS011;65949;53.132;17.930;2023-07-20T12:15:22;4.90;;;1.20;;
77016;SDS011;65949;53.132;17.930;2023-07-20T12:17:53;5.10;;;1.10;;
77016;SDS011;65949;53.132;17.930;2023-07-20T12:20:26;4.70;;;1.80;;
77016;SDS011;65949;53.132;17.930;2023-07-20T12:22:55;5.10;;;1.40;;
77016;SDS011;65949;53.132;17.930;2023-07-20T12:25:23;4.50;;;1.30;;
77016;SDS011;65949;53.132;17.930;2023-07-20T12:27:50;4.00;;;1.10;;
77016;SDS011;65949;53.132;17.930;2023-07-20T12:30:17;5.40;;;1.30;;
77016;SDS011;65949;53.132;17.930;2023-07-20T12:32:43;4.70;;;1.60;;
77016;SDS011;65949;53.132;17.930;2023-07-20T12:35:10;4.40;;;1.40;;
77016;SDS011;65949;53.132;17.930;2023-07-20T12:37:37;4.20;;;1.30;;
77016;SDS011;65949;53.132;17.930;2023-07-20T12:40:05;4.30;;;1.40;;
77016;SDS011;65949;53.132;17.930;2023-07-20T12:42:37;3.70;;;1.10;;
77016;SDS011;65949;53.132;17.930;2023-07-20T12:45:04;4.20;;;1.50;;
77016;SDS011;65949;53.132;17.930;2023-07-20T12:47:31;4.00;;;1.40;;
77016;SDS011;65949;53.132;17.930;2023-07-20T12:49:58;4.90;;;1.70;;
77016;SDS011;65949;53.132;17.930;2023-07-20T12:52:24;4.20;;;1.50;;
77016;SDS011;65949;53.132;17.930;2023-07-20T12:54:51;5.70;;;1.50;;
77016;SDS011;65949;53.132;17.930;2023-07-20T12:57:18;4.50;;;1.60;;
77016;SDS011;65949;53.132;17.930;2023-07-20T12:59:45;4.30;;;1.70;;
77016;SDS011;65949;53.132;17.930;2023-07-20T13:02:12;6.20;;;1.60;;
77016;SDS011;65949;53.132;17.930;2023-07-20T13:04:38;3.80;;;1.60;;
77016;SDS011;65949;53.132;17.930;2023-07-20T13:07:07;3.50;;;1.40;;
77016;SDS011;65949;53.132;17.930;2023-07-20T13:09:36;4.00;;;1.50;;
77016;SDS011;65949;53.132;17.930;2023-07-20T13:12:02;3.80;;;1.20;;
77016;SDS011;65949;53.132;17.930;2023-07-20T13:14:29;2.70;;;1.20;;
77016;SDS011;65949;53.132;17.930;2023-07-20T13:16:56;2.70;;;1.10;;
77016;SDS011;65949;53.132;17.930;2023-07-20T13:19:22;3.50;;;1.30;;
77016;SDS011;65949;53.132;17.930;2023-07-20T13:21:49;6.70;;;2.00;;
77016;SDS011;65949;53.132;17.930;2023-07-20T13:24:15;3.40;;;1.10;;
77016;SDS011;65949;53.132;17.930;2023-07-20T13:26:43;3.10;;;1.30;;
77016;SDS011;65949;53.132;17.930;2023-07-20T13:29:09;2.90;;;1.10;;
77016;SDS011;65949;53.132;17.930;2023-07-20T13:31:36;3.90;;;1.30;;
77016;SDS011;65949;53.132;17.930;2023-07-20T13:34:03;3.10;;;1.30;;
77016;SDS011;65949;53.132;17.930;2023-07-20T13:36:29;4.30;;;1.40;;
77016;SDS011;65949;53.132;17.930;2023-07-20T13:38:56;3.20;;;1.30;;
77016;SDS011;65949;53.132;17.930;2023-07-20T13:41:22;3.00;;;1.20;;
77016;SDS011;65949;53.132;17.930;2023-07-20T13:43:49;3.40;;;1.60;;
77016;SDS011;65949;53.132;17.930;2023-07-20T13:46:16;2.40;;;1.10;;
77016;SDS011;65949;53.132;17.930;2023-07-20T13:48:42;2.00;;;0.90;;
77016;SDS011;65949;53.132;17.930;2023-07-20T13:51:09;2.40;;;1.00;;
77016;SDS011;65949;53.132;17.930;2023-07-20T13:53:36;2.20;;;0.80;;
77016;SDS011;65949;53.132;17.930;2023-07-20T13:56:02;1.80;;;0.90;;
77016;SDS011;65949;53.132;17.930;2023-07-20T13:58:30;2.20;;;0.90;;
77016;SDS011;65949;53.132;17.930;2023-07-20T14:00:57;1.80;;;0.70;;
77016;SDS011;65949;53.132;17.930;2023-07-20T14:03:23;1.70;;;0.70;;
77016;SDS011;65949;53.132;17.930;2023-07-20T14:05:50;2.90;;;0.80;;
77016;SDS011;65949;53.132;17.930;2023-07-20T14:08:17;2.90;;;1.00;;
77016;SDS011;65949;53.132;17.930;2023-07-20T14:10:43;4.50;;;1.40;;
77016;SDS011;65949;53.132;17.930;2023-07-20T14:13:10;2.00;;;1.00;;
77016;SDS011;65949;53.132;17.930;2023-07-20T14:15:36;3.10;;;0.90;;
77016;SDS011;65949;53.132;17.930;2023-07-20T14:18:03;2.60;;;0.80;;
77016;SDS011;65949;53.132;17.930;2023-07-20T14:20:30;2.50;;;1.00;;
77016;SDS011;65949;53.132;17.930;2023-07-20T14:22:56;2.10;;;0.80;;
77016;SDS011;65949;53.132;17.930;2023-07-20T14:25:23;2.40;;;0.70;;
77016;SDS011;65949;53.132;17.930;2023-07-20T14:27:50;2.50;;;1.00;;
77016;SDS011;65949;53.132;17.930;2023-07-20T14:30:16;1.70;;;0.70;;
77016;SDS011;65949;53.132;17.930;2023-07-20T14:32:43;2.70;;;0.80;;
77016;SDS011;65949;53.132;17.930;2023-07-20T14:35:09;3.20;;;1.50;;
77016;SDS011;65949;53.132;17.930;2023-07-20T14:37:36;2.20;;;0.70;;
77016;SDS011;65949;53.132;17.930;2023-07-20T14:40:03;1.80;;;0.60;;
77016;SDS011;65949;53.132;17.930;2023-07-20T14:42:31;1.80;;;0.60;;
77016;SDS011;65949;53.132;17.930;2023-07-20T14:44:58;2.00;;;0.60;;